createdAt,value
2023-03-17T00:00:45.229Z,4.20
2023-03-17T00:03:26.773Z,3.43
2023-03-17T00:05:56.056Z,2.90
2023-03-17T00:08:30.647Z,2.68
2023-03-17T00:10:57.254Z,3.50
2023-03-17T00:13:24.608Z,4.48
2023-03-17T00:15:58.428Z,5.19
2023-03-17T00:18:25.300Z,5.65
2023-03-17T00:20:51.886Z,6.01
2023-03-17T00:23:21.872Z,6.21
2023-03-17T00:25:49.131Z,5.41
2023-03-17T00:28:22.477Z,4.42
2023-03-17T00:31:01.093Z,3.71
2023-03-17T00:33:33.866Z,3.20
2023-03-17T00:36:01.352Z,2.98
2023-03-17T00:38:27.862Z,3.61
2023-03-17T00:40:54.668Z,4.43
2023-03-17T00:43:21.085Z,5.16
2023-03-17T00:45:47.648Z,5.86
2023-03-17T00:48:20.664Z,6.47
2023-03-17T00:50:52.907Z,7.12
2023-03-17T00:53:21.167Z,7.37
2023-03-17T00:55:49.339Z,6.42
2023-03-17T00:58:29.747Z,5.33
2023-03-17T01:00:56.895Z,4.37
2023-03-17T01:03:24.338Z,3.67
2023-03-17T01:05:53.823Z,3.10
2023-03-17T01:08:22.924Z,2.84
2023-03-17T01:10:49.559Z,3.53
2023-03-17T01:13:19.229Z,4.43
2023-03-17T01:15:48.632Z,5.14
2023-03-17T01:18:18.697Z,5.69
2023-03-17T01:20:45.478Z,6.14
2023-03-17T01:23:12.680Z,6.57
2023-03-17T01:25:42.151Z,7.01
2023-03-17T01:28:18.257Z,7.17
2023-03-17T01:30:45.414Z,6.38
2023-03-17T01:33:13.902Z,5.53
2023-03-17T01:35:43.261Z,4.90
2023-03-17T01:38:10.941Z,4.42
2023-03-17T01:40:49.054Z,4.03
2023-03-17T01:43:27.223Z,3.87
2023-03-17T01:46:15.763Z,4.58
2023-03-17T01:49:14.035Z,5.46
2023-03-17T01:52:15.010Z,6.10
2023-03-17T01:55:07.209Z,6.56
2023-03-17T01:57:44.247Z,6.90
2023-03-17T02:00:20.101Z,6.95
2023-03-17T02:02:52.168Z,6.14
2023-03-17T02:05:26.478Z,5.30
2023-03-17T02:07:54.917Z,4.68
2023-03-17T02:10:25.321Z,4.23
2023-03-17T02:12:56.623Z,4.00
2023-03-17T02:15:24.353Z,4.62
2023-03-17T02:17:51.250Z,5.48
2023-03-17T02:20:17.835Z,6.15
2023-03-17T02:22:52.032Z,6.67
2023-03-17T02:25:20.860Z,6.93
2023-03-17T02:28:03.600Z,6.26
2023-03-17T02:30:32.488Z,5.38
2023-03-17T02:32:59.112Z,4.75
2023-03-17T02:35:34.843Z,4.27
2023-03-17T02:38:01.333Z,4.04
2023-03-17T02:40:28.548Z,4.68
2023-03-17T02:42:56.157Z,5.50
2023-03-17T02:45:22.797Z,6.10
2023-03-17T02:47:50.956Z,6.57
2023-03-17T02:50:22.491Z,6.91
2023-03-17T02:52:50.341Z,7.19
2023-03-17T02:55:18.232Z,7.24
2023-03-17T02:57:44.933Z,6.40
2023-03-17T03:00:13.603Z,5.49
2023-03-17T03:02:40.890Z,4.82
2023-03-17T03:05:09.000Z,4.32
2023-03-17T03:07:36.050Z,4.11
2023-03-17T03:10:03.514Z,4.81
2023-03-17T03:12:29.856Z,5.72
2023-03-17T03:14:56.240Z,6.41
2023-03-17T03:17:22.618Z,6.88
2023-03-17T03:19:49.056Z,7.09
2023-03-17T03:22:15.518Z,6.37
2023-03-17T03:24:41.944Z,5.49
2023-03-17T03:27:08.396Z,4.86
2023-03-17T03:29:35.693Z,4.36
2023-03-17T03:32:02.102Z,4.13
2023-03-17T03:34:28.845Z,4.79
2023-03-17T03:36:55.457Z,5.66
2023-03-17T03:39:21.856Z,6.35
2023-03-17T03:41:48.244Z,6.85
2023-03-17T03:44:14.811Z,7.24
2023-03-17T03:46:41.287Z,7.36
2023-03-17T03:49:07.953Z,6.63
2023-03-17T03:51:34.421Z,5.81
2023-03-17T03:54:00.866Z,5.16
2023-03-17T03:56:27.385Z,4.64
2023-03-17T03:58:53.850Z,4.33
2023-03-17T04:01:20.244Z,4.94
2023-03-17T04:03:46.696Z,5.78
2023-03-17T04:06:13.366Z,6.39
2023-03-17T04:08:39.900Z,6.76
2023-03-17T04:11:06.358Z,7.01
2023-03-17T04:13:32.758Z,7.21
2023-03-17T04:16:00.733Z,7.13
2023-03-17T04:18:27.266Z,6.17
2023-03-17T04:20:53.831Z,5.17
2023-03-17T04:23:20.335Z,4.43
2023-03-17T04:25:46.954Z,4.04
2023-03-17T04:28:13.461Z,4.60
2023-03-17T04:30:40.966Z,5.34
2023-03-17T04:33:07.720Z,5.96
2023-03-17T04:35:34.479Z,6.44
2023-03-17T04:38:01.245Z,6.72
2023-03-17T04:40:27.895Z,6.93
2023-03-17T04:42:54.497Z,7.13
2023-03-17T04:45:21.124Z,7.15
2023-03-17T04:47:47.868Z,6.37
2023-03-17T04:50:14.765Z,5.43
2023-03-17T04:52:41.520Z,4.65
2023-03-17T04:55:08.781Z,4.21
2023-03-17T04:57:36.310Z,4.67
2023-03-17T05:00:05.715Z,5.38
2023-03-17T05:02:32.568Z,5.90
2023-03-17T05:04:58.982Z,6.23
2023-03-17T05:07:25.618Z,6.47
2023-03-17T05:09:52.044Z,6.61
2023-03-17T05:12:18.508Z,6.68
2023-03-17T05:14:44.920Z,6.77
2023-03-17T05:17:11.453Z,6.82
2023-03-17T05:19:37.806Z,6.88
2023-03-17T05:22:05.274Z,6.80
2023-03-17T05:24:32.082Z,5.97
2023-03-17T05:26:58.596Z,5.00
2023-03-17T05:29:25.098Z,4.18
2023-03-17T05:31:52.032Z,3.71
2023-03-17T05:34:18.443Z,4.12
2023-03-17T05:36:46.020Z,4.75
2023-03-17T05:39:14.597Z,5.28
2023-03-17T05:41:41.838Z,5.64
2023-03-17T05:44:08.602Z,5.95
2023-03-17T05:46:35.051Z,6.19
2023-03-17T05:49:02.175Z,6.37
2023-03-17T05:51:28.806Z,6.54
2023-03-17T05:53:55.990Z,6.73
2023-03-17T05:56:22.691Z,6.87
2023-03-17T05:58:49.108Z,6.92
2023-03-17T06:01:15.664Z,6.92
2023-03-17T06:03:42.242Z,6.79
2023-03-17T06:06:08.825Z,5.97
2023-03-17T06:08:35.266Z,5.07
2023-03-17T06:11:01.926Z,4.33
2023-03-17T06:13:28.434Z,3.94
2023-03-17T06:15:56.433Z,4.41
2023-03-17T06:18:22.955Z,5.04
2023-03-17T06:20:49.394Z,5.49
2023-03-17T06:23:16.392Z,5.92
2023-03-17T06:25:42.791Z,6.31
2023-03-17T06:28:09.669Z,6.59
2023-03-17T06:30:40.079Z,6.69
2023-03-17T06:33:08.296Z,6.71
2023-03-17T06:35:35.533Z,6.88
2023-03-17T06:38:03.003Z,7.03
2023-03-17T06:40:29.599Z,7.19
2023-03-17T06:42:55.993Z,7.36
2023-03-17T06:45:22.718Z,7.36
2023-03-17T06:47:49.146Z,6.64
2023-03-17T06:50:15.675Z,5.83
2023-03-17T06:52:42.187Z,5.17
2023-03-17T06:55:10.210Z,4.82
2023-03-17T06:57:36.770Z,5.27
2023-03-17T07:00:07.850Z,5.95
2023-03-17T07:02:34.765Z,6.52
2023-03-17T07:05:03.229Z,6.95
2023-03-17T07:07:30.019Z,7.12
2023-03-17T07:09:56.759Z,7.29
2023-03-17T07:12:23.493Z,7.43
2023-03-17T07:14:50.434Z,7.57
2023-03-17T07:17:17.952Z,7.69
2023-03-17T07:19:45.389Z,7.58
2023-03-17T07:22:12.330Z,6.81
2023-03-17T07:24:41.538Z,6.03
2023-03-17T07:27:09.353Z,5.41
2023-03-17T07:29:46.288Z,5.12
2023-03-17T07:32:15.557Z,5.66
2023-03-17T07:34:42.437Z,6.35
2023-03-17T07:37:09.810Z,6.78
2023-03-17T07:39:36.285Z,7.00
2023-03-17T07:42:02.900Z,7.31
2023-03-17T07:44:29.926Z,7.65
2023-03-17T07:46:56.441Z,7.91
2023-03-17T07:49:39.945Z,8.02
2023-03-17T07:52:09.032Z,7.83
2023-03-17T07:54:37.087Z,7.02
2023-03-17T07:57:04.967Z,6.20
2023-03-17T07:59:32.513Z,5.55
2023-03-17T08:02:00.752Z,5.22
2023-03-17T08:04:28.028Z,5.63
2023-03-17T08:06:55.043Z,6.26
2023-03-17T08:09:21.804Z,6.86
2023-03-17T08:11:48.490Z,7.30
2023-03-17T08:14:14.974Z,7.63
2023-03-17T08:16:41.640Z,7.90
2023-03-17T08:19:08.107Z,8.22
2023-03-17T08:21:34.521Z,8.30
2023-03-17T08:24:01.047Z,8.53
2023-03-17T08:26:27.822Z,8.69
2023-03-17T08:28:54.352Z,8.00
2023-03-17T08:31:22.644Z,7.27
2023-03-17T08:33:53.427Z,6.84
2023-03-17T08:36:20.920Z,6.73
2023-03-17T08:38:48.456Z,7.36
2023-03-17T08:41:19.758Z,8.11
2023-03-17T08:43:47.435Z,8.58
2023-03-17T08:46:19.721Z,8.96
2023-03-17T08:48:50.466Z,9.13
2023-03-17T08:51:20.259Z,8.44
2023-03-17T08:53:48.775Z,7.54
2023-03-17T08:56:16.301Z,6.87
2023-03-17T08:58:43.334Z,6.50
2023-03-17T09:01:10.302Z,6.80
2023-03-17T09:03:40.140Z,7.27
2023-03-17T09:06:10.999Z,7.80
2023-03-17T09:08:44.057Z,8.43
2023-03-17T09:11:15.982Z,9.01
2023-03-17T09:13:42.773Z,9.32
2023-03-17T09:16:09.283Z,8.73
2023-03-17T09:18:36.089Z,7.98
2023-03-17T09:21:03.073Z,7.47
2023-03-17T09:23:32.947Z,7.12
2023-03-17T09:26:01.367Z,7.06
2023-03-17T09:28:28.634Z,7.70
2023-03-17T09:31:00.697Z,8.45
2023-03-17T09:33:28.324Z,9.03
2023-03-17T09:35:58.614Z,9.31
2023-03-17T09:38:27.036Z,8.78
2023-03-17T09:41:07.739Z,8.19
2023-03-17T09:43:58.587Z,7.68
2023-03-17T09:46:53.090Z,7.28
2023-03-17T09:49:26.912Z,7.06
2023-03-17T09:51:53.444Z,7.59
2023-03-17T09:54:32.895Z,8.33
2023-03-17T09:57:32.419Z,8.86
2023-03-17T10:00:14.249Z,8.82
2023-03-17T10:02:42.661Z,8.31
2023-03-17T10:05:25.510Z,7.97
2023-03-17T10:08:30.157Z,7.73
2023-03-17T10:11:35.132Z,7.59
2023-03-17T10:14:14.890Z,7.63
2023-03-17T10:17:03.568Z,8.35
2023-03-17T10:19:40.299Z,9.37
2023-03-17T10:22:18.849Z,9.98
2023-03-17T10:24:52.351Z,9.64
2023-03-17T10:27:19.093Z,9.11
2023-03-17T10:29:48.357Z,8.71
2023-03-17T10:32:15.494Z,8.37
2023-03-17T10:34:43.107Z,8.14
2023-03-17T10:37:14.962Z,8.00
2023-03-17T10:39:55.529Z,7.89
2023-03-17T10:42:28.510Z,7.77
2023-03-17T10:45:12.674Z,7.70
2023-03-17T10:47:45.137Z,7.69
2023-03-17T10:50:14.835Z,7.72
2023-03-17T10:52:41.890Z,7.77
2023-03-17T10:55:15.540Z,7.80
2023-03-17T10:58:01.585Z,7.83
2023-03-17T11:00:34.645Z,7.81
2023-03-17T11:03:30.699Z,7.83
2023-03-17T11:06:11.348Z,7.83
2023-03-17T11:09:05.720Z,7.87
2023-03-17T11:11:44.433Z,7.91
2023-03-17T11:14:18.093Z,7.94
2023-03-17T11:16:58.470Z,7.98
2023-03-17T11:19:48.775Z,8.05
2023-03-17T11:22:22.446Z,8.15
2023-03-17T11:25:09.222Z,8.21
2023-03-17T11:27:51.729Z,8.24
2023-03-17T11:31:34.571Z,8.21
2023-03-17T11:34:13.127Z,8.23
2023-03-17T11:36:56.410Z,8.26
2023-03-17T11:39:55.871Z,8.32
2023-03-17T11:43:18.507Z,8.42
2023-03-17T11:46:27.725Z,8.53
2023-03-17T11:49:14.073Z,8.60
2023-03-17T11:52:11.599Z,8.69
2023-03-17T11:55:17.062Z,8.84
2023-03-17T11:58:09.913Z,8.94
2023-03-17T12:00:45.388Z,9.03
2023-03-17T12:03:31.541Z,9.08
2023-03-17T12:06:06.855Z,9.12
2023-03-17T12:08:46.056Z,9.15
2023-03-17T12:11:21.637Z,9.16
2023-03-17T12:13:57.858Z,9.20
2023-03-17T12:16:51.950Z,9.22
2023-03-17T12:19:24.182Z,9.29
2023-03-17T12:22:26.169Z,9.35
2023-03-17T12:25:34.468Z,9.38
2023-03-17T12:28:15.468Z,9.43
2023-03-17T12:31:07.468Z,9.47
2023-03-17T12:33:52.084Z,9.47
2023-03-17T12:36:19.948Z,9.45
2023-03-17T12:39:01.394Z,9.41
2023-03-17T12:41:59.155Z,9.38
2023-03-17T12:45:03.897Z,9.34
2023-03-17T12:47:54.887Z,9.28
2023-03-17T12:51:05.884Z,9.23
2023-03-17T12:53:44.194Z,9.21
2023-03-17T12:56:25.423Z,9.24
2023-03-17T12:59:18.764Z,9.26
2023-03-17T13:02:17.242Z,9.29
2023-03-17T13:04:59.722Z,9.25
2023-03-17T13:07:50.779Z,9.24
2023-03-17T13:10:43.556Z,9.31
2023-03-17T13:13:35.843Z,9.47
2023-03-17T13:16:05.405Z,9.69
2023-03-17T13:18:49.168Z,9.82
2023-03-17T13:21:19.884Z,9.94
2023-03-17T13:23:55.975Z,10.04
2023-03-17T13:27:01.281Z,10.09
2023-03-17T13:29:31.822Z,10.12
2023-03-17T13:32:16.552Z,10.16
2023-03-17T13:34:53.271Z,10.25
2023-03-17T13:37:35.120Z,10.32
2023-03-17T13:40:21.436Z,10.30
2023-03-17T13:43:16.762Z,10.27
2023-03-17T13:45:45.989Z,10.23
2023-03-17T13:48:39.627Z,10.14
2023-03-17T13:51:13.974Z,10.13
2023-03-17T13:53:50.935Z,10.12
2023-03-17T13:56:35.922Z,10.05
2023-03-17T13:59:02.288Z,10.03
2023-03-17T14:01:38.866Z,10.03
2023-03-17T14:04:15.792Z,10.02
2023-03-17T14:06:44.473Z,10.01
2023-03-17T14:09:34.681Z,9.99
2023-03-17T14:12:27.715Z,10.00
2023-03-17T14:15:11.071Z,9.99
2023-03-17T14:17:49.886Z,9.96
2023-03-17T14:20:16.229Z,10.01
2023-03-17T14:22:46.614Z,10.04
2023-03-17T14:25:21.102Z,10.00
2023-03-17T14:27:53.475Z,10.02
2023-03-17T14:30:28.142Z,9.99
2023-03-17T14:33:13.512Z,9.93
2023-03-17T14:35:42.826Z,9.89
2023-03-17T14:38:21.399Z,9.88
2023-03-17T14:40:50.864Z,9.82
2023-03-17T14:43:17.517Z,9.71
2023-03-17T14:46:37.065Z,9.56
2023-03-17T14:49:18.648Z,9.39
2023-03-17T14:51:56.696Z,9.26
2023-03-17T14:54:32.800Z,9.15
2023-03-17T14:57:13.601Z,9.03
2023-03-17T14:59:55.728Z,8.94
2023-03-17T15:02:37.131Z,8.89
2023-03-17T15:05:24.014Z,8.88
2023-03-17T15:07:51.181Z,8.82
2023-03-17T15:10:23.904Z,8.78
2023-03-17T15:13:00.938Z,8.75
2023-03-17T15:15:41.110Z,8.74
2023-03-17T15:18:14.884Z,8.72
2023-03-17T15:20:44.060Z,8.71
2023-03-17T15:23:20.292Z,8.69
2023-03-17T15:25:55.915Z,8.67
2023-03-17T15:28:30.560Z,8.66
2023-03-17T15:31:12.608Z,8.63
2023-03-17T15:33:41.475Z,8.63
2023-03-17T15:36:29.313Z,8.61
2023-03-17T15:38:58.185Z,8.57
2023-03-17T15:41:24.675Z,8.54
2023-03-17T15:43:51.170Z,8.53
2023-03-17T15:46:26.669Z,8.51
2023-03-17T15:48:53.091Z,8.46
2023-03-17T15:51:19.508Z,8.41
2023-03-17T15:53:46.734Z,8.37
2023-03-17T15:56:20.536Z,8.31
2023-03-17T15:58:50.836Z,8.25
2023-03-17T16:01:19.223Z,8.20
2023-03-17T16:03:48.201Z,8.15
2023-03-17T16:06:21.506Z,8.11
2023-03-17T16:08:49.311Z,8.08
2023-03-17T16:11:19.787Z,8.05
2023-03-17T16:13:47.200Z,8.00
2023-03-17T16:16:31.618Z,7.96
2023-03-17T16:18:58.636Z,7.91
2023-03-17T16:21:25.850Z,7.87
2023-03-17T16:23:52.514Z,7.84
2023-03-17T16:26:18.953Z,7.82
2023-03-17T16:28:47.271Z,7.77
2023-03-17T16:31:32.079Z,7.73
2023-03-17T16:33:58.817Z,7.69
2023-03-17T16:36:25.954Z,7.67
2023-03-17T16:38:52.591Z,7.64
2023-03-17T16:41:23.931Z,7.58
2023-03-17T16:43:59.953Z,7.54
2023-03-17T16:46:34.453Z,7.49
2023-03-17T16:49:03.574Z,7.47
2023-03-17T16:51:30.079Z,7.44
2023-03-17T16:53:56.563Z,7.38
2023-03-17T16:56:26.368Z,7.35
2023-03-17T16:58:52.793Z,7.32
2023-03-17T17:01:26.616Z,7.30
2023-03-17T17:03:53.632Z,7.26
2023-03-17T17:06:22.606Z,7.22
2023-03-17T17:08:50.548Z,7.18
2023-03-17T17:11:19.699Z,7.16
2023-03-17T17:13:48.170Z,7.13
2023-03-17T17:16:41.795Z,7.08
2023-03-17T17:19:16.136Z,7.06
2023-03-17T17:21:43.999Z,7.03
2023-03-17T17:24:12.659Z,7.00
2023-03-17T17:26:40.067Z,6.97
2023-03-17T17:29:06.940Z,6.94
2023-03-17T17:31:33.610Z,6.91
2023-03-17T17:34:00.294Z,6.89
2023-03-17T17:36:27.247Z,6.85
2023-03-17T17:38:53.747Z,6.80
2023-03-17T17:41:21.327Z,6.78
2023-03-17T17:43:49.378Z,6.74
2023-03-17T17:46:22.156Z,6.72
2023-03-17T17:48:49.543Z,6.67
2023-03-17T17:51:16.341Z,6.62
2023-03-17T17:53:43.201Z,6.62
2023-03-17T17:56:15.413Z,6.57
2023-03-17T17:58:43.937Z,6.55
2023-03-17T18:01:13.358Z,6.51
2023-03-17T18:03:42.115Z,6.46
2023-03-17T18:06:09.522Z,6.41
2023-03-17T18:08:36.638Z,6.37
2023-03-17T18:11:03.422Z,6.34
2023-03-17T18:13:30.346Z,6.31
2023-03-17T18:15:57.920Z,6.26
2023-03-17T18:18:24.867Z,6.25
2023-03-17T18:20:53.278Z,6.24
2023-03-17T18:23:20.466Z,6.21
2023-03-17T18:25:47.251Z,6.20
2023-03-17T18:28:15.293Z,6.17
2023-03-17T18:30:44.206Z,6.15
2023-03-17T18:33:19.299Z,6.14
2023-03-17T18:35:50.189Z,6.11
2023-03-17T18:38:16.651Z,6.08
2023-03-17T18:40:44.084Z,6.05
2023-03-17T18:43:11.137Z,6.02
2023-03-17T18:45:37.604Z,5.98
2023-03-17T18:48:04.100Z,5.95
2023-03-17T18:50:31.042Z,5.94
2023-03-17T18:52:58.089Z,5.91
2023-03-17T18:55:24.642Z,5.88
2023-03-17T18:57:51.286Z,5.84
2023-03-17T19:00:18.207Z,5.81
2023-03-17T19:02:46.297Z,5.77
2023-03-17T19:05:15.953Z,5.72
2023-03-17T19:07:42.643Z,5.69
2023-03-17T19:10:11.600Z,5.68
2023-03-17T19:12:41.942Z,5.67
2023-03-17T19:15:10.108Z,5.66
2023-03-17T19:17:36.758Z,5.65
2023-03-17T19:20:05.130Z,5.62
2023-03-17T19:22:33.315Z,5.60
2023-03-17T19:25:01.650Z,5.57
2023-03-17T19:27:28.177Z,5.56
2023-03-17T19:29:54.915Z,5.56
2023-03-17T19:32:21.468Z,5.56
2023-03-17T19:34:48.121Z,5.56
2023-03-17T19:37:15.556Z,5.54
2023-03-17T19:39:44.328Z,5.53
2023-03-17T19:42:12.577Z,5.51
2023-03-17T19:44:40.041Z,5.52
2023-03-17T19:47:07.796Z,5.53
2023-03-17T19:49:37.522Z,5.53
2023-03-17T19:52:06.173Z,5.52
2023-03-17T19:54:34.610Z,5.51
2023-03-17T19:57:01.589Z,5.53
2023-03-17T19:59:28.287Z,5.50
2023-03-17T20:02:02.631Z,5.47
2023-03-17T20:04:29.539Z,5.47
2023-03-17T20:06:57.481Z,5.48
2023-03-17T20:09:26.637Z,5.45
2023-03-17T20:11:55.496Z,5.43
2023-03-17T20:14:23.304Z,5.44
2023-03-17T20:16:50.162Z,5.43
2023-03-17T20:19:17.237Z,5.41
2023-03-17T20:21:44.174Z,5.39
2023-03-17T20:24:12.400Z,5.38
2023-03-17T20:26:42.637Z,5.36
2023-03-17T20:29:14.715Z,5.35
2023-03-17T20:31:42.149Z,5.33
2023-03-17T20:34:14.413Z,5.32
2023-03-17T20:36:42.906Z,5.34
2023-03-17T20:39:14.203Z,5.34
2023-03-17T20:41:41.650Z,5.35
2023-03-17T20:44:08.392Z,5.33
2023-03-17T20:46:35.713Z,5.35
2023-03-17T20:49:05.038Z,5.38
2023-03-17T20:51:33.375Z,5.39
2023-03-17T20:54:02.169Z,5.37
2023-03-17T20:56:33.111Z,5.38
2023-03-17T20:59:04.309Z,5.38
2023-03-17T21:01:36.874Z,5.37
2023-03-17T21:04:08.470Z,5.35
2023-03-17T21:06:37.848Z,5.33
2023-03-17T21:09:05.623Z,5.31
2023-03-17T21:11:32.143Z,5.30
2023-03-17T21:13:59.270Z,5.29
2023-03-17T21:16:29.160Z,5.29
2023-03-17T21:18:56.125Z,5.28
2023-03-17T21:21:24.079Z,5.27
2023-03-17T21:23:50.615Z,5.26
2023-03-17T21:26:20.114Z,5.25
2023-03-17T21:28:48.169Z,5.24
2023-03-17T21:31:16.534Z,5.21
2023-03-17T21:33:49.853Z,5.21
2023-03-17T21:36:18.065Z,5.19
2023-03-17T21:38:45.571Z,5.17
2023-03-17T21:41:34.140Z,5.13
2023-03-17T21:44:02.885Z,5.12
2023-03-17T21:46:31.018Z,5.11
2023-03-17T21:48:59.777Z,5.08
2023-03-17T21:51:26.910Z,5.08
2023-03-17T21:53:53.777Z,5.08
2023-03-17T21:56:21.343Z,5.08
2023-03-17T21:58:48.367Z,5.06
2023-03-17T22:01:21.033Z,5.04
2023-03-17T22:03:49.986Z,5.05
2023-03-17T22:06:16.556Z,5.07
2023-03-17T22:08:43.947Z,5.07
2023-03-17T22:11:17.008Z,5.09
2023-03-17T22:13:45.000Z,5.10
2023-03-17T22:16:13.377Z,5.11
2023-03-17T22:18:40.953Z,5.10
2023-03-17T22:21:09.507Z,5.09
2023-03-17T22:23:41.656Z,5.11
2023-03-17T22:26:13.441Z,5.13
2023-03-17T22:28:42.478Z,5.14
2023-03-17T22:31:14.543Z,5.12
2023-03-17T22:33:41.235Z,5.10
2023-03-17T22:36:09.612Z,5.08
2023-03-17T22:38:36.644Z,5.09
2023-03-17T22:41:08.396Z,5.09
2023-03-17T22:43:39.447Z,5.07
2023-03-17T22:46:07.579Z,5.05
2023-03-17T22:48:39.579Z,5.05
2023-03-17T22:51:16.227Z,5.04
2023-03-17T22:53:43.322Z,5.02
2023-03-17T22:56:12.652Z,5.00
2023-03-17T22:58:40.494Z,5.00
2023-03-17T23:01:08.842Z,5.01
2023-03-17T23:03:35.792Z,5.02
2023-03-17T23:06:05.113Z,5.02
2023-03-17T23:08:35.507Z,5.03
2023-03-17T23:11:07.904Z,5.05
2023-03-17T23:13:34.918Z,5.05
2023-03-17T23:16:02.530Z,5.04
2023-03-17T23:18:29.071Z,5.04
2023-03-17T23:20:55.669Z,5.04
2023-03-17T23:23:22.761Z,5.03
2023-03-17T23:25:49.659Z,5.02
2023-03-17T23:28:16.106Z,5.02
2023-03-17T23:30:44.994Z,5.02
2023-03-17T23:33:12.866Z,5.01
2023-03-17T23:35:39.970Z,5.00
2023-03-17T23:38:07.373Z,4.99
2023-03-17T23:40:34.415Z,4.98
2023-03-17T23:43:01.328Z,4.97
2023-03-17T23:45:28.073Z,4.97
2023-03-17T23:47:56.876Z,4.96
2023-03-17T23:50:23.423Z,4.97
2023-03-17T23:52:49.917Z,4.96
2023-03-17T23:55:21.088Z,4.96
2023-03-17T23:57:48.685Z,4.95
